Time;durP1;ratioP1;P1;durP2;ratioP2;P2;SDS_P1;SDS_P2;PMS_P1;PMS_P2;Temp;Humidity;BMP_temperature;BMP_pressure;BME280_temperature;BME280_humidity;BME280_pressure;Samples;Min_cycle;Max_cycle;Signal;HPM_P1;HPM_P2
2023/11/11 00:00:20;;;;;;;2.35;0.95;;;;;;;2.48;nan;94453.72;2042141;29;20058;-53
2023/11/11 00:01:21;;;;;;;2.88;1.00;;;;;;;2.54;nan;94453.47;2041839;29;20044;-53
2023/11/11 00:02:22;;;;;;;3.08;1.20;;;;;;;2.44;nan;94450.47;2041573;29;20051;-53
2023/11/11 00:03:24;;;;;;;2.60;0.68;;;;;;;2.57;nan;94446.50;2033410;29;20060;-53
2023/11/11 00:04:25;;;;;;;3.50;0.85;;;;;;;2.61;nan;94454.88;2024883;29;20424;-53
2023/11/11 00:05:26;;;;;;;2.35;0.80;;;;;;;2.65;nan;94459.00;2033328;29;20052;-53
2023/11/11 00:06:27;;;;;;;3.33;1.10;;;;;;;2.62;nan;94454.00;2041770;29;20400;-53
2023/11/11 00:07:28;;;;;;;2.03;0.90;;;;;;;2.64;nan;94455.59;2041965;29;20056;-53
2023/11/11 00:08:34;;;;;;;1.98;1.00;;;;;;;2.57;nan;94450.81;2042077;29;20392;-53
2023/11/11 00:09:36;;;;;;;1.95;1.00;;;;;;;2.47;nan;94454.63;2042287;29;20460;-53
2023/11/11 00:10:38;;;;;;;2.25;0.75;;;;;;;2.42;nan;94449.69;2033884;29;20504;-53
2023/11/11 00:11:39;;;;;;;2.53;1.08;;;;;;;2.37;nan;94456.72;2033389;29;20059;-53
2023/11/11 00:12:40;;;;;;;1.92;0.90;;;;;;;2.39;nan;94453.19;2041040;29;20047;-52
2023/11/11 00:13:42;;;;;;;2.35;1.20;;;;;;;2.42;nan;94465.06;2041256;29;20059;-53
2023/11/11 00:14:43;;;;;;;3.00;0.95;;;;;;;2.41;nan;94460.84;2041697;29;20078;-53
2023/11/11 00:15:44;;;;;;;3.60;1.00;;;;;;;2.41;nan;94453.97;2041893;29;20384;-53
2023/11/11 00:16:45;;;;;;;2.38;0.80;;;;;;;2.46;nan;94450.38;2041482;29;20059;-53
2023/11/11 00:17:47;;;;;;;2.65;1.00;;;;;;;2.42;nan;94454.81;2042217;29;20054;-52
2023/11/11 00:18:48;;;;;;;2.75;0.88;;;;;;;2.34;nan;94455.09;2041871;29;20063;-52
2023/11/11 00:19:49;;;;;;;3.53;1.00;;;;;;;2.32;nan;94456.06;2041989;29;20483;-52
2023/11/11 00:20:50;;;;;;;4.82;1.20;;;;;;;2.27;nan;94453.66;2042055;29;20051;-52
2023/11/11 00:21:53;;;;;;;3.85;1.25;;;;;;;2.28;nan;94462.22;2041967;29;20067;-52
2023/11/11 00:22:54;;;;;;;4.40;1.17;;;;;;;2.27;nan;94456.22;2041638;29;20060;-52
2023/11/11 00:23:58;;;;;;;2.08;1.08;;;;;;;2.27;nan;94463.09;2041963;29;20059;-53
2023/11/11 00:24:59;;;;;;;3.88;1.38;;;;;;;2.29;nan;94469.81;2042181;29;20059;-52
2023/11/11 00:26:00;;;;;;;1.75;0.90;;;;;;;2.31;nan;94456.97;2041755;29;20397;-53
2023/11/11 00:27:02;;;;;;;2.13;1.05;;;;;;;2.46;nan;94458.06;2042072;29;20035;-52
2023/11/11 00:28:03;;;;;;;4.68;1.38;;;;;;;2.48;nan;94456.28;2041885;29;20066;-52
2023/11/11 00:29:05;;;;;;;4.13;1.48;;;;;;;2.42;nan;94452.25;2041830;29;20479;-53
2023/11/11 00:30:07;;;;;;;3.53;1.30;;;;;;;2.36;nan;94457.63;2042016;29;20044;-52
2023/11/11 00:31:10;;;;;;;2.72;0.98;;;;;;;2.45;nan;94464.09;2041789;29;20050;-53
2023/11/11 00:32:12;;;;;;;6.22;1.52;;;;;;;2.45;nan;94457.25;2041165;29;20059;-53
2023/11/11 00:33:13;;;;;;;5.53;1.20;;;;;;;2.39;nan;94460.06;2032703;29;20078;-52
2023/11/11 00:34:15;;;;;;;4.13;1.10;;;;;;;2.51;nan;94453.59;2033430;29;20052;-53
2023/11/11 00:35:17;;;;;;;5.72;1.48;;;;;;;2.50;nan;94444.25;2042013;29;20399;-52
2023/11/11 00:36:19;;;;;;;3.17;1.10;;;;;;;2.54;nan;94453.47;2042008;29;20048;-53
2023/11/11 00:37:20;;;;;;;3.63;1.40;;;;;;;2.62;nan;94451.44;2042022;29;20050;-52
2023/11/11 00:38:21;;;;;;;1.38;0.98;;;;;;;2.63;nan;94460.78;2033540;29;20409;-53
2023/11/11 00:39:22;;;;;;;3.20;1.30;;;;;;;2.80;nan;94447.28;2032833;29;20062;-53
2023/11/11 00:40:23;;;;;;;2.90;1.00;;;;;;;2.79;nan;94443.06;2041936;29;20400;-53
2023/11/11 00:41:25;;;;;;;2.53;1.30;;;;;;;2.76;nan;94444.00;2040903;29;20056;-52
2023/11/11 00:42:26;;;;;;;3.28;1.08;;;;;;;2.78;nan;94434.53;2041138;29;20063;-53
2023/11/11 00:43:27;;;;;;;2.63;1.00;;;;;;;2.86;nan;94442.75;2042116;29;20047;-52
2023/11/11 00:44:28;;;;;;;3.05;1.20;;;;;;;2.83;nan;94442.00;2041954;29;20043;-52
2023/11/11 00:45:29;;;;;;;2.63;1.20;;;;;;;2.86;nan;94449.56;2032762;29;20059;-52
2023/11/11 00:46:30;;;;;;;2.45;1.30;;;;;;;2.91;nan;94455.34;2033463;29;20059;-53
2023/11/11 00:47:31;;;;;;;2.35;1.20;;;;;;;2.88;nan;94448.63;2041671;29;20047;-52
2023/11/11 00:48:33;;;;;;;2.75;1.35;;;;;;;2.93;nan;94458.69;2041715;29;20063;-52
2023/11/11 00:49:34;;;;;;;2.10;1.00;;;;;;;2.96;nan;94450.84;2041238;29;20136;-53
2023/11/11 00:50:35;;;;;;;1.67;1.05;;;;;;;2.92;nan;94445.94;2033483;29;20047;-52
2023/11/11 00:51:39;;;;;;;3.25;1.00;;;;;;;3.11;nan;94439.13;2024793;29;20052;-53
2023/11/11 00:52:40;;;;;;;2.30;1.08;;;;;;;3.15;nan;94447.53;2033801;29;20056;-53
2023/11/11 00:53:41;;;;;;;2.03;1.00;;;;;;;3.14;nan;94446.69;2041669;29;20051;-53
2023/11/11 00:54:42;;;;;;;2.00;0.90;;;;;;;3.19;nan;94444.75;2040494;29;20042;-53
2023/11/11 00:55:43;;;;;;;4.47;0.90;;;;;;;3.28;nan;94440.97;2033263;29;20044;-53
2023/11/11 00:56:44;;;;;;;1.63;0.90;;;;;;;3.29;nan;94442.66;2033412;29;20508;-53
2023/11/11 00:57:46;;;;;;;2.00;1.10;;;;;;;3.31;nan;94457.06;2041721;29;20051;-53
2023/11/11 00:58:48;;;;;;;3.13;1.17;;;;;;;3.31;nan;94422.84;2041463;29;20054;-52
2023/11/11 00:59:49;;;;;;;4.07;0.90;;;;;;;3.44;nan;94446.25;2041523;29;20059;-53
2023/11/11 01:00:50;;;;;;;2.13;1.08;;;;;;;3.40;nan;94449.88;2041388;29;20514;-53
2023/11/11 01:01:51;;;;;;;1.55;0.75;;;;;;;3.43;nan;94445.44;2041232;29;20476;-52
2023/11/11 01:02:54;;;;;;;2.00;0.50;;;;;;;3.44;nan;94446.25;2041891;29;20408;-53
2023/11/11 01:03:55;;;;;;;2.10;1.08;;;;;;;3.45;nan;94448.75;2041899;29;20421;-53
2023/11/11 01:04:56;;;;;;;1.67;0.57;;;;;;;3.50;nan;94445.97;2033597;29;20056;-53
2023/11/11 01:05:57;;;;;;;3.33;0.90;;;;;;;3.55;nan;94446.59;2033472;29;20095;-52
2023/11/11 01:06:58;;;;;;;3.97;0.98;;;;;;;3.55;nan;94449.16;2033194;29;20052;-53
2023/11/11 01:08:00;;;;;;;1.33;0.80;;;;;;;3.51;nan;94453.63;2032820;29;20428;-53
2023/11/11 01:09:01;;;;;;;2.25;1.15;;;;;;;3.60;nan;94457.50;2032812;29;20055;-52
2023/11/11 01:10:02;;;;;;;3.72;1.10;;;;;;;3.60;nan;94454.94;2033493;29;20060;-53
2023/11/11 01:11:04;;;;;;;1.38;0.50;;;;;;;3.67;nan;94455.50;2033641;29;20059;-53
2023/11/11 01:12:05;;;;;;;2.80;0.98;;;;;;;3.70;nan;94447.66;2034825;29;20063;-53
2023/11/11 01:13:06;;;;;;;1.73;0.90;;;;;;;3.72;nan;94462.09;2034622;29;20512;-52
2023/11/11 01:14:07;;;;;;;1.67;0.60;;;;;;;3.71;nan;94460.41;2043450;29;20048;-53
2023/11/11 01:15:09;;;;;;;0.85;0.70;;;;;;;3.74;nan;94456.88;2034584;29;20416;-53
2023/11/11 01:16:10;;;;;;;1.67;0.90;;;;;;;3.71;nan;94457.84;2034959;29;20052;-53
2023/11/11 01:17:11;;;;;;;2.20;1.10;;;;;;;3.69;nan;94461.41;2043273;29;20058;-53
2023/11/11 01:18:12;;;;;;;2.08;1.02;;;;;;;3.62;nan;94450.56;2043213;29;20407;-52
2023/11/11 01:19:13;;;;;;;3.60;1.02;;;;;;;3.65;nan;94452.16;2034745;29;20048;-53
2023/11/11 01:20:15;;;;;;;1.73;1.00;;;;;;;3.67;nan;94455.50;2034548;29;20516;-53
2023/11/11 01:21:16;;;;;;;1.63;0.70;;;;;;;3.72;nan;94441.56;2043651;29;20059;-52
2023/11/11 01:22:18;;;;;;;1.23;0.70;;;;;;;3.75;nan;94445.72;2043250;29;20062;-53
2023/11/11 01:23:19;;;;;;;4.03;1.20;;;;;;;3.73;nan;94447.53;2042923;29;20531;-53
2023/11/11 01:24:20;;;;;;;2.72;0.77;;;;;;;3.74;nan;94444.03;2043128;29;20055;-53
2023/11/11 01:25:22;;;;;;;0.85;0.55;;;;;;;3.74;nan;94434.63;2042079;29;20048;-53
2023/11/11 01:26:26;;;;;;;2.22;0.95;;;;;;;3.73;nan;94443.22;2034584;29;20446;-53
2023/11/11 01:27:27;;;;;;;0.85;0.40;;;;;;;3.70;nan;94448.50;2026931;29;20444;-53
2023/11/11 01:28:31;;;;;;;4.35;0.60;;;;;;;3.65;nan;94435.03;2035156;29;20064;-53
2023/11/11 01:29:33;;;;;;;1.33;0.60;;;;;;;3.65;nan;94429.91;2043438;29;20364;-53
2023/11/11 01:30:35;;;;;;;1.02;0.45;;;;;;;3.68;nan;94434.06;2043472;29;20119;-54
2023/11/11 01:31:36;;;;;;;1.38;0.60;;;;;;;3.64;nan;94441.06;2043246;29;20051;-54
2023/11/11 01:32:37;;;;;;;1.42;0.55;;;;;;;3.60;nan;94431.00;2034807;29;20051;-54
2023/11/11 01:33:38;;;;;;;1.30;0.60;;;;;;;3.58;nan;94446.47;2027043;29;20048;-53
2023/11/11 01:34:39;;;;;;;3.53;0.80;;;;;;;3.56;nan;94438.03;2034475;29;20060;-53
2023/11/11 01:35:40;;;;;;;1.73;0.90;;;;;;;3.53;nan;94445.88;2034636;29;20060;-54
2023/11/11 01:36:41;;;;;;;1.42;0.85;;;;;;;3.54;nan;94442.38;2034681;29;20401;-54
2023/11/11 01:37:43;;;;;;;1.70;0.68;;;;;;;3.54;nan;94452.66;2042437;29;20054;-54
2023/11/11 01:38:44;;;;;;;1.33;0.65;;;;;;;3.50;nan;94451.97;2042896;29;20044;-54
2023/11/11 01:39:45;;;;;;;1.63;0.70;;;;;;;3.47;nan;94435.84;2036253;29;20059;-55
2023/11/11 01:40:46;;;;;;;0.75;0.63;;;;;;;3.44;nan;94444.50;2034691;29;20533;-53
2023/11/11 01:41:47;;;;;;;3.42;1.08;;;;;;;3.42;nan;94450.63;2035013;29;20048;-54
2023/11/11 01:42:49;;;;;;;2.15;0.93;;;;;;;3.39;nan;94443.06;2035412;29;20040;-54
2023/11/11 01:43:50;;;;;;;2.45;0.80;;;;;;;3.35;nan;94437.22;2034379;29;20059;-54
2023/11/11 01:44:51;;;;;;;1.15;0.38;;;;;;;3.36;nan;94436.31;2027284;29;20060;-54
2023/11/11 01:45:54;;;;;;;2.50;0.85;;;;;;;3.36;nan;94438.06;2026731;29;20064;-54
2023/11/11 01:46:55;;;;;;;1.17;0.77;;;;;;;3.36;nan;94431.19;2027106;29;20059;-54
2023/11/11 01:47:57;;;;;;;1.05;0.65;;;;;;;3.35;nan;94439.81;2034703;29;20052;-54
2023/11/11 01:49:00;;;;;;;0.93;0.68;;;;;;;3.32;nan;94427.09;2034358;29;20059;-54
2023/11/11 01:50:01;;;;;;;1.00;0.65;;;;;;;3.32;nan;94442.50;2026882;29;20508;-54
2023/11/11 01:51:03;;;;;;;1.38;0.70;;;;;;;3.28;nan;94436.66;2034974;29;20051;-54
2023/11/11 01:52:05;;;;;;;1.70;0.65;;;;;;;3.29;nan;94429.81;2034322;29;20052;-54
2023/11/11 01:53:06;;;;;;;1.20;0.57;;;;;;;3.34;nan;94432.16;2019087;29;20391;-55
2023/11/11 01:54:07;;;;;;;0.68;0.50;;;;;;;3.30;nan;94434.84;2026726;29;20425;-54
2023/11/11 01:55:08;;;;;;;0.77;0.47;;;;;;;3.26;nan;94427.34;2033233;29;20055;-56
2023/11/11 01:56:09;;;;;;;1.70;0.77;;;;;;;3.25;nan;94430.84;2034369;29;20056;-55
2023/11/11 01:57:10;;;;;;;0.98;0.70;;;;;;;3.24;nan;94424.06;2034593;29;20051;-55
2023/11/11 01:58:12;;;;;;;1.60;0.80;;;;;;;3.22;nan;94424.09;2034714;29;20040;-54
2023/11/11 01:59:13;;;;;;;1.52;0.73;;;;;;;3.21;nan;94437.00;2026120;29;20060;-55
2023/11/11 02:00:14;;;;;;;1.92;0.90;;;;;;;3.16;nan;94437.19;2026937;29;20059;-55
2023/11/11 02:01:15;;;;;;;1.60;0.70;;;;;;;3.18;nan;94440.53;2026703;29;20048;-55
2023/11/11 02:02:16;;;;;;;1.45;0.82;;;;;;;3.14;nan;94428.72;2026348;29;20056;-56
2023/11/11 02:03:19;;;;;;;1.88;0.60;;;;;;;3.16;nan;94426.13;2034405;29;20071;-56
2023/11/11 02:04:20;;;;;;;3.13;0.80;;;;;;;3.19;nan;94429.38;2026865;29;20494;-55
2023/11/11 02:05:21;;;;;;;1.95;0.93;;;;;;;3.19;nan;94428.53;2034685;29;20511;-55
2023/11/11 02:06:22;;;;;;;1.60;0.90;;;;;;;3.21;nan;94430.16;2034376;29;20064;-56
2023/11/11 02:07:24;;;;;;;1.58;0.70;;;;;;;3.20;nan;94418.19;2034447;29;20464;-56
2023/11/11 02:08:30;;;;;;;0.68;0.40;;;;;;;3.22;nan;94431.78;2027067;29;20052;-55
2023/11/11 02:09:31;;;;;;;7.03;1.05;;;;;;;3.21;nan;94431.88;2027064;29;20055;-54
2023/11/11 02:10:34;;;;;;;1.58;0.70;;;;;;;3.23;nan;94433.44;2026050;29;20179;-55
2023/11/11 02:11:35;;;;;;;1.85;0.90;;;;;;;3.25;nan;94426.53;2033927;29;20089;-54
2023/11/11 02:12:36;;;;;;;1.67;0.60;;;;;;;3.28;nan;94431.53;2034095;29;20067;-54
2023/11/11 02:13:37;;;;;;;3.00;0.90;;;;;;;3.26;nan;94435.06;2034187;29;20063;-54
2023/11/11 02:14:38;;;;;;;1.13;0.55;;;;;;;3.30;nan;94434.03;2034695;29;20075;-54
2023/11/11 02:15:40;;;;;;;2.95;0.90;;;;;;;3.26;nan;94433.34;2034132;29;20079;-54
2023/11/11 02:16:41;;;;;;;2.92;1.02;;;;;;;3.29;nan;94404.16;2035463;29;20055;-54
2023/11/11 02:17:42;;;;;;;1.02;0.57;;;;;;;3.33;nan;94433.91;2035480;29;20043;-54
2023/11/11 02:18:43;;;;;;;1.63;0.70;;;;;;;3.35;nan;94431.28;2034490;29;20051;-54
2023/11/11 02:19:44;;;;;;;1.45;1.00;;;;;;;3.33;nan;94427.94;2034346;29;20059;-54
2023/11/11 02:20:45;;;;;;;1.83;0.82;;;;;;;3.36;nan;94422.66;2034040;29;20059;-54
2023/11/11 02:21:48;;;;;;;0.75;0.50;;;;;;;3.37;nan;94420.03;2034588;29;20048;-54
2023/11/11 02:22:49;;;;;;;2.05;0.70;;;;;;;3.38;nan;94431.13;2034391;29;20056;-54
2023/11/11 02:23:50;;;;;;;1.48;0.63;;;;;;;3.36;nan;94417.53;2034670;29;20047;-54
2023/11/11 02:24:52;;;;;;;0.95;0.50;;;;;;;3.43;nan;94431.75;2018803;29;20051;-53
2023/11/11 02:25:53;;;;;;;2.25;0.80;;;;;;;3.46;nan;94423.94;2019195;29;20509;-54
2023/11/11 02:26:54;;;;;;;1.25;0.60;;;;;;;3.47;nan;94408.44;2026659;29;20519;-54
2023/11/11 02:27:55;;;;;;;1.00;0.65;;;;;;;3.44;nan;94418.84;2026368;29;20055;-54
2023/11/11 02:28:56;;;;;;;1.23;0.60;;;;;;;3.46;nan;94411.91;2019030;29;20048;-54
2023/11/11 02:29:57;;;;;;;1.55;0.57;;;;;;;3.47;nan;94421.28;2033928;29;20060;-54
2023/11/11 02:30:58;;;;;;;1.25;0.68;;;;;;;3.52;nan;94409.06;2026784;29;20044;-54
2023/11/11 02:32:00;;;;;;;0.80;0.60;;;;;;;3.57;nan;94379.81;2026854;29;20056;-55
2023/11/11 02:33:02;;;;;;;1.58;1.15;;;;;;;3.58;nan;94428.50;2034392;29;20055;-54
2023/11/11 02:34:03;;;;;;;0.82;0.50;;;;;;;3.59;nan;94419.91;2033736;29;20056;-54
2023/11/11 02:35:04;;;;;;;0.70;0.63;;;;;;;3.63;nan;94426.56;2035114;29;20052;-54
2023/11/11 02:36:06;;;;;;;1.85;0.80;;;;;;;3.68;nan;94396.38;2034787;29;20040;-53
2023/11/11 02:37:08;;;;;;;0.70;0.43;;;;;;;3.67;nan;94434.97;2034989;29;20048;-53
2023/11/11 02:38:09;;;;;;;1.10;0.52;;;;;;;3.67;nan;94425.53;2033810;29;20063;-54
2023/11/11 02:39:13;;;;;;;1.13;0.80;;;;;;;3.64;nan;94423.09;2034157;29;20510;-53
2023/11/11 02:40:15;;;;;;;2.28;0.70;;;;;;;3.64;nan;94419.72;2042169;29;20500;-54
2023/11/11 02:41:16;;;;;;;0.63;0.30;;;;;;;3.63;nan;94406.03;2042338;29;20060;-55
2023/11/11 02:42:17;;;;;;;1.00;0.50;;;;;;;3.62;nan;94430.03;2042746;29;20047;-54
2023/11/11 02:43:18;;;;;;;1.10;0.68;;;;;;;3.64;nan;94429.97;2042785;29;20059;-54
2023/11/11 02:44:19;;;;;;;0.93;0.50;;;;;;;3.62;nan;94427.47;2042821;29;20063;-54
2023/11/11 02:45:21;;;;;;;0.68;0.47;;;;;;;3.62;nan;94435.16;2034267;29;20056;-53
2023/11/11 02:46:22;;;;;;;1.50;0.77;;;;;;;3.60;nan;94436.13;2033732;29;20056;-54
2023/11/11 02:47:23;;;;;;;2.50;0.30;;;;;;;3.60;nan;94431.84;2042586;29;20063;-54
2023/11/11 02:48:25;;;;;;;0.57;0.40;;;;;;;3.63;nan;94418.84;2042603;29;20047;-54
2023/11/11 02:49:26;;;;;;;0.88;0.50;;;;;;;3.63;nan;94436.81;2034389;29;20476;-53
2023/11/11 02:50:28;;;;;;;0.88;0.60;;;;;;;3.62;nan;94437.75;2026361;29;20057;-53
2023/11/11 02:51:29;;;;;;;0.82;0.50;;;;;;;3.63;nan;94431.69;2034520;29;20048;-53
2023/11/11 02:52:31;;;;;;;0.30;0.30;;;;;;;3.67;nan;94433.22;2042212;29;20055;-54
2023/11/11 02:53:33;;;;;;;1.25;0.50;;;;;;;3.72;nan;94440.72;2034384;29;20512;-53
2023/11/11 02:54:34;;;;;;;2.28;0.63;;;;;;;3.78;nan;94439.63;2032896;29;20111;-54
2023/11/11 02:55:35;;;;;;;1.25;0.57;;;;;;;3.79;nan;94444.66;2034249;29;20498;-54
2023/11/11 02:56:36;;;;;;;1.83;0.65;;;;;;;3.80;nan;94438.66;2042011;29;20055;-53
2023/11/11 02:57:37;;;;;;;0.70;0.50;;;;;;;3.83;nan;94427.41;2042254;29;20400;-54
2023/11/11 02:58:39;;;;;;;1.00;0.50;;;;;;;3.83;nan;94441.06;2041867;29;20412;-53
2023/11/11 02:59:40;;;;;;;0.57;0.40;;;;;;;3.85;nan;94428.16;2033418;29;20056;-53
2023/11/11 03:00:43;;;;;;;1.50;0.38;;;;;;;3.83;nan;94429.97;2034171;29;20404;-53
2023/11/11 03:01:44;;;;;;;0.57;0.40;;;;;;;3.86;nan;94432.41;2042298;29;20054;-54
2023/11/11 03:02:45;;;;;;;1.30;0.57;;;;;;;3.84;nan;94435.03;2034082;29;20048;-53
2023/11/11 03:03:46;;;;;;;0.68;0.43;;;;;;;3.83;nan;94429.97;2033739;29;20059;-53
2023/11/11 03:04:49;;;;;;;0.98;0.30;;;;;;;3.82;nan;94436.81;2042278;29;20047;-54
2023/11/11 03:05:51;;;;;;;1.88;0.50;;;;;;;3.83;nan;94437.69;2042404;29;20047;-53
2023/11/11 03:06:52;;;;;;;1.02;0.43;;;;;;;3.84;nan;94441.91;2042342;29;20054;-54
2023/11/11 03:07:53;;;;;;;0.73;0.60;;;;;;;3.84;nan;94440.16;2042000;29;20385;-53
2023/11/11 03:08:55;;;;;;;1.08;0.40;;;;;;;3.85;nan;94441.84;2033983;29;20063;-53
2023/11/11 03:09:56;;;;;;;0.70;0.20;;;;;;;3.83;nan;94432.53;2034431;29;20036;-53
2023/11/11 03:10:57;;;;;;;0.65;0.35;;;;;;;3.81;nan;94431.78;2042545;29;20051;-54
2023/11/11 03:12:00;;;;;;;0.40;0.22;;;;;;;3.83;nan;94429.97;2033709;29;20052;-54
2023/11/11 03:13:01;;;;;;;1.60;0.30;;;;;;;3.82;nan;94433.44;2033211;29;20527;-53
2023/11/11 03:14:03;;;;;;;0.93;0.50;;;;;;;3.74;nan;94421.78;2041991;29;20484;-53
2023/11/11 03:15:05;;;;;;;0.40;0.20;;;;;;;3.76;nan;94425.09;2032944;29;20404;-53
2023/11/11 03:16:07;;;;;;;2.08;0.35;;;;;;;3.74;nan;94437.19;2033743;29;20044;-53
2023/11/11 03:17:08;;;;;;;1.15;0.40;;;;;;;3.81;nan;94424.06;2041832;29;20070;-54
2023/11/11 03:18:09;;;;;;;0.20;0.20;;;;;;;3.86;nan;94427.25;2041892;29;20064;-54
2023/11/11 03:19:10;;;;;;;0.70;0.40;;;;;;;3.86;nan;94435.78;2041996;29;20040;-54
2023/11/11 03:20:12;;;;;;;0.55;0.20;;;;;;;3.85;nan;94426.44;2042100;29;20048;-53
2023/11/11 03:21:22;;;;;;;3.25;0.30;;;;;;;3.80;nan;94424.97;2034285;29;20096;-53
2023/11/11 03:22:23;;;;;;;0.20;0.20;;;;;;;3.77;nan;94420.81;2035352;29;20447;-53
2023/11/11 03:23:24;;;;;;;1.55;0.25;;;;;;;3.84;nan;94414.47;2042255;29;20064;-53
2023/11/11 03:24:25;;;;;;;0.43;0.20;;;;;;;3.84;nan;94418.78;2034164;29;20051;-54
2023/11/11 03:25:27;;;;;;;0.35;0.10;;;;;;;3.83;nan;94432.53;2034128;29;20056;-53
2023/11/11 03:26:28;;;;;;;0.22;0.20;;;;;;;3.77;nan;94431.09;2042298;29;20130;-53
2023/11/11 03:27:29;;;;;;;3.35;0.45;;;;;;;3.76;nan;94432.81;2042022;29;20051;-53
2023/11/11 03:28:31;;;;;;;0.50;0.40;;;;;;;3.78;nan;94422.47;2042286;29;20048;-53
2023/11/11 03:29:32;;;;;;;0.25;0.20;;;;;;;3.78;nan;94442.19;2042294;29;20040;-53
2023/11/11 03:30:33;;;;;;;2.53;0.50;;;;;;;3.87;nan;94434.88;2041617;29;20412;-53
2023/11/11 03:31:34;;;;;;;0.77;0.40;;;;;;;3.90;nan;94434.75;2033826;29;20056;-53
2023/11/11 03:32:35;;;;;;;0.35;0.15;;;;;;;3.96;nan;94433.66;2033480;29;20070;-53
2023/11/11 03:33:36;;;;;;;0.25;0.25;;;;;;;4.01;nan;94431.69;2041839;29;20055;-52
2023/11/11 03:34:37;;;;;;;0.55;0.30;;;;;;;4.02;nan;94438.50;2033960;29;20066;-53
2023/11/11 03:35:38;;;;;;;1.23;0.25;;;;;;;4.04;nan;94428.97;2033298;29;20056;-54
2023/11/11 03:36:39;;;;;;;0.45;0.30;;;;;;;4.02;nan;94441.06;2042313;29;20059;-53
2023/11/11 03:37:40;;;;;;;1.77;0.40;;;;;;;4.00;nan;94432.59;2042308;29;20047;-55
2023/11/11 03:38:41;;;;;;;1.30;0.30;;;;;;;3.96;nan;94444.75;2042215;29;20050;-56
2023/11/11 03:39:44;;;;;;;1.08;0.50;;;;;;;3.93;nan;94434.63;2042324;29;20058;-55
2023/11/11 03:40:45;;;;;;;0.40;0.30;;;;;;;3.90;nan;94431.34;2042255;29;20044;-55
2023/11/11 03:41:46;;;;;;;0.75;0.40;;;;;;;3.91;nan;94422.75;2042110;29;20050;-56
2023/11/11 03:42:48;;;;;;;0.75;0.50;;;;;;;3.88;nan;94439.13;2041949;29;20056;-54
2023/11/11 03:43:49;;;;;;;0.45;0.22;;;;;;;3.86;nan;94427.25;2033703;29;20493;-55
2023/11/11 03:44:50;;;;;;;0.45;0.30;;;;;;;3.89;nan;94440.78;2033811;29;20036;-55
2023/11/11 03:45:51;;;;;;;0.88;0.40;;;;;;;3.89;nan;94432.25;2041381;29;20416;-55
2023/11/11 03:46:53;;;;;;;0.30;0.22;;;;;;;3.93;nan;94428.66;2042135;29;20488;-55
2023/11/11 03:47:54;;;;;;;0.45;0.30;;;;;;;4.03;nan;94441.88;2041904;29;20052;-54
2023/11/11 03:48:55;;;;;;;0.55;0.25;;;;;;;4.03;nan;94445.28;2042006;29;20495;-55
2023/11/11 03:49:56;;;;;;;0.68;0.30;;;;;;;4.08;nan;94438.19;2042122;29;20043;-55
2023/11/11 03:50:57;;;;;;;1.63;0.38;;;;;;;4.11;nan;94443.19;2042050;29;20523;-55
2023/11/11 03:51:59;;;;;;;0.25;0.15;;;;;;;4.14;nan;94448.22;2032996;29;20060;-54
2023/11/11 03:53:00;;;;;;;0.68;0.50;;;;;;;4.16;nan;94440.41;2033758;29;20063;-54
2023/11/11 03:54:01;;;;;;;0.20;0.10;;;;;;;4.14;nan;94461.06;2042341;29;20059;-54
2023/11/11 03:55:04;;;;;;;0.47;0.28;;;;;;;4.14;nan;94453.34;2039560;29;20055;-54
2023/11/11 03:56:10;;;;;;;0.10;0.10;;;;;;;4.14;nan;94449.91;2041829;29;20047;-54
2023/11/11 03:57:11;;;;;;;0.47;0.17;;;;;;;4.15;nan;94444.72;2042214;29;20043;-54
2023/11/11 03:58:12;;;;;;;0.30;0.20;;;;;;;4.13;nan;94446.53;2042031;29;20055;-54
2023/11/11 03:59:13;;;;;;;0.17;0.10;;;;;;;4.16;nan;94448.13;2042259;29;20039;-54
2023/11/11 04:00:19;;;;;;;0.65;0.30;;;;;;;4.14;nan;94443.06;2042476;29;20050;-54
2023/11/11 04:01:20;;;;;;;0.80;0.30;;;;;;;4.12;nan;94438.91;2033926;29;20048;-54
2023/11/11 04:02:21;;;;;;;0.25;0.20;;;;;;;4.15;nan;94446.47;2025439;29;20080;-53
2023/11/11 04:03:22;;;;;;;0.32;0.20;;;;;;;4.13;nan;94435.41;2033653;29;20060;-54
2023/11/11 04:04:24;;;;;;;1.45;0.47;;;;;;;4.10;nan;94456.13;2033635;29;20063;-53
2023/11/11 04:05:25;;;;;;;0.80;0.43;;;;;;;4.09;nan;94457.00;2033583;29;20048;-54
2023/11/11 04:06:26;;;;;;;0.40;0.10;;;;;;;4.07;nan;94454.53;2033684;29;20052;-54
2023/11/11 04:07:27;;;;;;;0.68;0.20;;;;;;;4.07;nan;94448.56;2033622;29;20067;-54
2023/11/11 04:08:29;;;;;;;0.50;0.25;;;;;;;4.12;nan;94457.72;2033722;29;20412;-54
2023/11/11 04:09:33;;;;;;;0.40;0.20;;;;;;;4.13;nan;94469.66;2033522;29;20044;-54
2023/11/11 04:10:35;;;;;;;0.30;0.10;;;;;;;4.12;nan;94462.03;2033810;29;20052;-54
2023/11/11 04:11:36;;;;;;;0.10;0.10;;;;;;;4.10;nan;94469.78;2026266;29;20104;-54
2023/11/11 04:12:39;;;;;;;0.35;0.15;;;;;;;4.08;nan;94466.44;2033578;29;20059;-53
2023/11/11 04:13:40;;;;;;;0.57;0.22;;;;;;;4.11;nan;94452.63;2041801;29;20484;-54
2023/11/11 04:14:41;;;;;;;0.63;0.22;;;;;;;4.17;nan;94460.91;2025642;29;20048;-54
2023/11/11 04:15:42;;;;;;;1.27;0.20;;;;;;;4.16;nan;94461.78;2025525;29;20057;-54
2023/11/11 04:16:44;;;;;;;0.40;0.17;;;;;;;4.22;nan;94470.13;2033454;29;20055;-54
2023/11/11 04:17:47;;;;;;;0.40;0.20;;;;;;;4.19;nan;94461.63;2025735;29;20063;-54
2023/11/11 04:18:48;;;;;;;1.63;0.20;;;;;;;4.19;nan;94460.81;2026087;29;20056;-53
2023/11/11 04:19:49;;;;;;;0.28;0.10;;;;;;;4.18;nan;94448.88;2033465;29;20044;-54
2023/11/11 04:20:52;;;;;;;0.45;0.20;;;;;;;4.26;nan;94472.47;2033644;29;20055;-54
2023/11/11 04:21:54;;;;;;;0.40;0.10;;;;;;;4.25;nan;94470.81;2033492;29;20055;-54
2023/11/11 04:22:55;;;;;;;0.00;0.00;;;;;;;4.29;nan;94467.19;2033182;29;20055;-54
2023/11/11 04:23:57;;;;;;;0.20;0.20;;;;;;;4.27;nan;94421.91;2033540;29;20052;-54
2023/11/11 04:24:58;;;;;;;0.10;0.10;;;;;;;4.35;nan;94474.59;2033102;29;20059;-54
2023/11/11 04:26:00;;;;;;;0.47;0.22;;;;;;;4.34;nan;94452.38;2041461;29;20082;-54
2023/11/11 04:27:02;;;;;;;0.75;0.28;;;;;;;4.40;nan;94488.06;2041528;29;20055;-54
2023/11/11 04:28:03;;;;;;;0.03;0.00;;;;;;;4.46;nan;94481.81;2042141;29;20061;-54
2023/11/11 04:29:04;;;;;;;0.47;0.20;;;;;;;4.47;nan;94474.94;2041560;29;20104;-55
2023/11/11 04:30:06;;;;;;;0.15;0.03;;;;;;;4.45;nan;94477.59;2041992;29;20490;-53
2023/11/11 04:31:08;;;;;;;0.38;0.25;;;;;;;4.49;nan;94488.53;2042167;29;20052;-54
2023/11/11 04:32:09;;;;;;;0.30;0.10;;;;;;;4.49;nan;94499.69;2041928;29;20059;-53
2023/11/11 04:33:10;;;;;;;0.28;0.10;;;;;;;4.47;nan;94465.50;2041438;29;20055;-53
2023/11/11 04:34:11;;;;;;;0.17;0.10;;;;;;;4.47;nan;94506.63;2042514;29;20055;-53
2023/11/11 04:35:13;;;;;;;1.65;0.20;;;;;;;4.42;nan;94488.84;2041528;29;20404;-54
2023/11/11 04:36:14;;;;;;;0.38;0.10;;;;;;;4.41;nan;94483.75;2041916;29;20051;-55
2023/11/11 04:37:17;;;;;;;0.10;0.10;;;;;;;4.41;nan;94496.63;2041420;29;20055;-53
2023/11/11 04:38:19;;;;;;;0.40;0.10;;;;;;;4.40;nan;94495.78;2042120;29;20054;-53
2023/11/11 04:39:21;;;;;;;0.30;0.10;;;;;;;4.39;nan;94485.59;2041265;29;20059;-54
2023/11/11 04:40:22;;;;;;;0.98;0.20;;;;;;;4.42;nan;94482.88;2041780;29;20058;-53
2023/11/11 04:41:26;;;;;;;0.20;0.20;;;;;;;4.38;nan;94489.91;2041964;29;20058;-53
2023/11/11 04:42:27;;;;;;;0.10;0.10;;;;;;;4.42;nan;94495.72;2041402;29;20055;-53
2023/11/11 04:43:28;;;;;;;0.30;0.30;;;;;;;4.43;nan;94479.38;2042076;29;20051;-54
2023/11/11 04:44:30;;;;;;;0.00;0.00;;;;;;;4.45;nan;94503.28;2041998;29;20056;-53
2023/11/11 04:45:31;;;;;;;0.25;0.10;;;;;;;4.41;nan;94505.19;2041434;29;20060;-54
2023/11/11 04:46:32;;;;;;;0.00;0.00;;;;;;;4.35;nan;94507.19;2041989;29;20040;-53
2023/11/11 04:47:33;;;;;;;1.45;0.20;;;;;;;4.32;nan;94518.44;2041735;29;20399;-54
2023/11/11 04:48:34;;;;;;;0.95;0.10;;;;;;;4.31;nan;94515.97;2041884;29;20051;-53
2023/11/11 04:49:38;;;;;;;0.17;0.10;;;;;;;4.24;nan;94528.25;2041943;29;20051;-53
2023/11/11 04:50:39;;;;;;;0.13;0.10;;;;;;;4.19;nan;94523.31;2041914;29;20039;-54
2023/11/11 04:51:40;;;;;;;0.10;0.00;;;;;;;4.19;nan;94522.47;2041227;29;20059;-52
2023/11/11 04:52:41;;;;;;;1.90;0.40;;;;;;;4.18;nan;94520.81;2042120;29;20453;-53
2023/11/11 04:53:42;;;;;;;0.35;0.10;;;;;;;4.18;nan;94533.69;2042033;29;20054;-53
2023/11/11 04:54:44;;;;;;;0.32;0.13;;;;;;;4.15;nan;94526.13;2040398;29;20395;-53
2023/11/11 04:55:47;;;;;;;0.10;0.10;;;;;;;4.08;nan;94506.72;2041885;29;20047;-55
2023/11/11 04:56:48;;;;;;;0.10;0.10;;;;;;;4.06;nan;94519.63;2041723;29;20044;-55
2023/11/11 04:57:50;;;;;;;0.10;0.10;;;;;;;4.06;nan;94545.31;2042010;29;20388;-53
2023/11/11 04:58:51;;;;;;;0.20;0.10;;;;;;;4.04;nan;94516.31;2041721;29;20403;-54
2023/11/11 04:59:52;;;;;;;0.47;0.10;;;;;;;4.04;nan;94541.19;2042057;29;20051;-53